sensor_id;sensor_type;location;lat;lon;timestamp;pressure;altitude;pressure_sealevel;temperature;humidity
23616;BME280;11985;49.404;7.734;2023-07-28T00:04:38;96609.06;;;15.74;100.00
23616;BME280;11985;49.404;7.734;2023-07-28T00:09:39;96611.47;;;15.75;100.00
23616;BME280;11985;49.404;7.734;2023-07-28T00:14:41;96622.88;;;15.76;100.00
23616;BME280;11985;49.404;7.734;2023-07-28T00:19:44;96612.53;;;15.74;100.00
23616;BME280;11985;49.404;7.734;2023-07-28T00:24:45;96607.22;;;15.74;100.00
23616;BME280;11985;49.404;7.734;2023-07-28T00:29:47;96605.09;;;15.76;100.00
23616;BME280;11985;49.404;7.734;2023-07-28T00:34:50;96595.53;;;15.75;100.00
23616;BME280;11985;49.404;7.734;2023-07-28T00:39:51;96594.47;;;15.71;100.00
23616;BME280;11985;49.404;7.734;2023-07-28T00:44:53;96595.53;;;15.75;100.00
23616;BME280;11985;49.404;7.734;2023-07-28T00:49:56;96597.09;;;15.66;100.00
23616;BME280;11985;49.404;7.734;2023-07-28T00:54:58;96597.31;;;15.65;100.00
23616;BME280;11985;49.404;7.734;2023-07-28T01:00:00;96602.38;;;15.66;100.00
23616;BME280;11985;49.404;7.734;2023-07-28T01:05:03;96593.06;;;15.64;100.00
23616;BME280;11985;49.404;7.734;2023-07-28T01:10:07;96596.50;;;15.64;100.00
23616;BME280;11985;49.404;7.734;2023-07-28T01:15:10;96593.78;;;15.59;100.00
23616;BME280;11985;49.404;7.734;2023-07-28T01:20:13;96592.72;;;15.60;100.00
23616;BME280;11985;49.404;7.734;2023-07-28T01:25:18;96594.66;;;15.65;100.00
23616;BME280;11985;49.404;7.734;2023-07-28T01:30:25;96591.13;;;15.59;100.00
23616;BME280;11985;49.404;7.734;2023-07-28T01:35:27;96589.53;;;15.58;100.00
23616;BME280;11985;49.404;7.734;2023-07-28T01:40:29;96580.84;;;15.63;100.00
23616;BME280;11985;49.404;7.734;2023-07-28T01:45:32;96579.22;;;15.62;100.00
23616;BME280;11985;49.404;7.734;2023-07-28T01:50:34;96584.22;;;15.58;100.00
23616;BME280;11985;49.404;7.734;2023-07-28T01:55:35;96584.53;;;15.62;100.00
23616;BME280;11985;49.404;7.734;2023-07-28T02:00:38;96581.31;;;15.59;100.00
23616;BME280;11985;49.404;7.734;2023-07-28T02:05:40;96573.63;;;15.58;100.00
23616;BME280;11985;49.404;7.734;2023-07-28T02:10:43;96575.78;;;15.61;100.00
23616;BME280;11985;49.404;7.734;2023-07-28T02:15:46;96580.53;;;15.59;100.00
23616;BME280;11985;49.404;7.734;2023-07-28T02:20:48;96572.03;;;15.57;100.00
23616;BME280;11985;49.404;7.734;2023-07-28T02:25:50;96572.03;;;15.57;100.00
23616;BME280;11985;49.404;7.734;2023-07-28T02:30:53;96568.56;;;15.56;100.00
23616;BME280;11985;49.404;7.734;2023-07-28T02:35:54;96571.22;;;15.56;100.00
23616;BME280;11985;49.404;7.734;2023-07-28T02:40:56;96565.13;;;15.56;100.00
23616;BME280;11985;49.404;7.734;2023-07-28T02:46:00;96555.28;;;15.56;100.00
23616;BME280;11985;49.404;7.734;2023-07-28T02:51:01;96570.97;;;15.58;100.00
23616;BME280;11985;49.404;7.734;2023-07-28T02:56:03;96585.81;;;15.59;100.00
23616;BME280;11985;49.404;7.734;2023-07-28T03:01:06;96577.94;;;15.64;100.00
23616;BME280;11985;49.404;7.734;2023-07-28T03:06:08;96586.97;;;15.63;100.00
23616;BME280;11985;49.404;7.734;2023-07-28T03:11:09;96584.31;;;15.63;100.00
23616;BME280;11985;49.404;7.734;2023-07-28T03:16:12;96581.66;;;15.63;100.00
23616;BME280;11985;49.404;7.734;2023-07-28T03:21:14;96573.69;;;15.63;100.00
23616;BME280;11985;49.404;7.734;2023-07-28T03:26:16;96576.34;;;15.63;100.00
23616;BME280;11985;49.404;7.734;2023-07-28T03:31:19;96579.53;;;15.65;100.00
23616;BME280;11985;49.404;7.734;2023-07-28T03:36:21;96577.44;;;15.67;100.00
23616;BME280;11985;49.404;7.734;2023-07-28T03:41:23;96587.75;;;15.64;100.00
23616;BME280;11985;49.404;7.734;2023-07-28T03:46:26;96580.84;;;15.63;100.00
23616;BME280;11985;49.404;7.734;2023-07-28T03:51:27;96585.66;;;15.66;100.00
23616;BME280;11985;49.404;7.734;2023-07-28T03:56:29;96583.53;;;15.68;100.00
23616;BME280;11985;49.404;7.734;2023-07-28T04:01:32;96586.50;;;15.76;100.00
23616;BME280;11985;49.404;7.734;2023-07-28T04:06:41;96589.78;;;15.83;100.00
23616;BME280;11985;49.404;7.734;2023-07-28T04:11:43;96604.63;;;15.84;100.00
23616;BME280;11985;49.404;7.734;2023-07-28T04:16:46;96613.13;;;15.87;100.00
23616;BME280;11985;49.404;7.734;2023-07-28T04:21:47;96620.31;;;15.86;100.00
23616;BME280;11985;49.404;7.734;2023-07-28T04:26:49;96620.84;;;15.83;100.00
23616;BME280;11985;49.404;7.734;2023-07-28T04:31:52;96620.53;;;15.79;100.00
23616;BME280;11985;49.404;7.734;2023-07-28T04:36:53;96622.88;;;15.76;100.00
23616;BME280;11985;49.404;7.734;2023-07-28T04:41:55;96629.00;;;15.76;100.00
23616;BME280;11985;49.404;7.734;2023-07-28T04:46:58;96633.28;;;15.77;100.00
23616;BME280;11985;49.404;7.734;2023-07-28T04:52:00;96631.94;;;15.80;100.00
23616;BME280;11985;49.404;7.734;2023-07-28T04:57:02;96643.94;;;15.88;100.00
23616;BME280;11985;49.404;7.734;2023-07-28T05:02:06;96647.22;;;15.95;100.00
23616;BME280;11985;49.404;7.734;2023-07-28T05:07:07;96646.69;;;15.98;100.00
23616;BME280;11985;49.404;7.734;2023-07-28T05:12:09;96651.47;;;15.96;100.00
23616;BME280;11985;49.404;7.734;2023-07-28T05:17:12;96647.47;;;15.98;100.00
23616;BME280;11985;49.404;7.734;2023-07-28T05:22:13;96648.81;;;15.96;100.00
23616;BME280;11985;49.404;7.734;2023-07-28T05:27:15;96648.81;;;15.96;100.00
23616;BME280;11985;49.404;7.734;2023-07-28T05:32:18;96642.97;;;15.94;100.00
23616;BME280;11985;49.404;7.734;2023-07-28T05:37:20;96650.91;;;15.94;100.00
23616;BME280;11985;49.404;7.734;2023-07-28T05:42:21;96650.91;;;15.94;100.00
23616;BME280;11985;49.404;7.734;2023-07-28T05:47:25;96656.47;;;15.92;100.00
23616;BME280;11985;49.404;7.734;2023-07-28T05:52:27;96660.97;;;15.92;100.00
23616;BME280;11985;49.404;7.734;2023-07-28T05:57:29;96668.94;;;15.92;100.00
23616;BME280;11985;49.404;7.734;2023-07-28T06:02:32;96663.13;;;15.95;100.00
23616;BME280;11985;49.404;7.734;2023-07-28T06:07:34;96670.53;;;15.93;100.00
23616;BME280;11985;49.404;7.734;2023-07-28T06:12:35;96673.84;;;16.05;100.00
23616;BME280;11985;49.404;7.734;2023-07-28T06:17:39;96683.94;;;16.08;100.00
23616;BME280;11985;49.404;7.734;2023-07-28T06:22:40;96675.75;;;16.15;100.00
23616;BME280;11985;49.404;7.734;2023-07-28T06:27:42;96690.34;;;16.12;100.00
23616;BME280;11985;49.404;7.734;2023-07-28T06:32:45;96685.91;;;16.23;100.00
23616;BME280;11985;49.404;7.734;2023-07-28T06:37:47;96691.22;;;16.23;100.00
23616;BME280;11985;49.404;7.734;2023-07-28T06:42:48;96689.63;;;16.22;100.00
23616;BME280;11985;49.404;7.734;2023-07-28T06:47:51;96704.75;;;16.16;100.00
23616;BME280;11985;49.404;7.734;2023-07-28T06:52:53;96715.91;;;16.18;100.00
23616;BME280;11985;49.404;7.734;2023-07-28T06:57:55;96710.34;;;16.20;100.00
23616;BME280;11985;49.404;7.734;2023-07-28T07:02:58;96720.22;;;16.29;100.00
23616;BME280;11985;49.404;7.734;2023-07-28T07:08:00;96717.66;;;16.40;100.00
23616;BME280;11985;49.404;7.734;2023-07-28T07:13:02;96718.00;;;16.53;100.00
23616;BME280;11985;49.404;7.734;2023-07-28T07:18:05;96719.75;;;16.75;100.00
23616;BME280;11985;49.404;7.734;2023-07-28T07:23:06;96724.81;;;16.81;100.00
23616;BME280;11985;49.404;7.734;2023-07-28T07:28:08;96721.13;;;16.82;100.00
23616;BME280;11985;49.404;7.734;2023-07-28T07:33:11;96718.50;;;16.93;100.00
23616;BME280;11985;49.404;7.734;2023-07-28T07:38:13;96719.28;;;16.93;100.00
23616;BME280;11985;49.404;7.734;2023-07-28T07:43:14;96736.63;;;16.96;100.00
23616;BME280;11985;49.404;7.734;2023-07-28T07:48:21;96742.44;;;16.93;100.00
23616;BME280;11985;49.404;7.734;2023-07-28T07:53:23;96745.06;;;16.87;100.00
23616;BME280;11985;49.404;7.734;2023-07-28T07:58:25;96748.56;;;16.88;100.00
23616;BME280;11985;49.404;7.734;2023-07-28T08:03:27;96749.69;;;17.07;100.00
23616;BME280;11985;49.404;7.734;2023-07-28T08:08:29;96743.47;;;17.44;100.00
23616;BME280;11985;49.404;7.734;2023-07-28T08:13:31;96751.81;;;17.78;100.00
23616;BME280;11985;49.404;7.734;2023-07-28T08:18:34;96767.78;;;17.73;100.00
23616;BME280;11985;49.404;7.734;2023-07-28T08:23:35;96761.91;;;17.76;100.00
23616;BME280;11985;49.404;7.734;2023-07-28T08:28:37;96760.31;;;17.75;100.00
23616;BME280;11985;49.404;7.734;2023-07-28T08:33:40;96756.22;;;17.42;100.00
23616;BME280;11985;49.404;7.734;2023-07-28T08:38:42;96768.69;;;17.36;100.00
23616;BME280;11985;49.404;7.734;2023-07-28T08:43:45;96768.22;;;17.50;100.00
23616;BME280;11985;49.404;7.734;2023-07-28T08:48:48;96769.31;;;17.64;100.00
23616;BME280;11985;49.404;7.734;2023-07-28T08:53:49;96769.88;;;17.71;100.00
23616;BME280;11985;49.404;7.734;2023-07-28T08:58:57;96777.66;;;17.73;100.00
23616;BME280;11985;49.404;7.734;2023-07-28T09:04:00;96778.50;;;17.93;100.00
23616;BME280;11985;49.404;7.734;2023-07-28T09:09:02;96779.28;;;18.19;100.00
23616;BME280;11985;49.404;7.734;2023-07-28T09:14:11;96779.03;;;18.41;100.00
23616;BME280;11985;49.404;7.734;2023-07-28T09:19:14;96771.81;;;18.57;100.00
23616;BME280;11985;49.404;7.734;2023-07-28T09:24:15;96763.84;;;18.72;100.00
23616;BME280;11985;49.404;7.734;2023-07-28T09:29:18;96784.88;;;18.59;100.00
23616;BME280;11985;49.404;7.734;2023-07-28T09:34:25;96784.88;;;18.48;100.00
23616;BME280;11985;49.404;7.734;2023-07-28T09:39:27;96786.50;;;18.44;100.00
23616;BME280;11985;49.404;7.734;2023-07-28T09:44:29;96796.63;;;18.42;100.00
23616;BME280;11985;49.404;7.734;2023-07-28T09:49:35;96803.56;;;18.28;100.00
23616;BME280;11985;49.404;7.734;2023-07-28T09:54:40;96803.28;;;18.09;100.00
23616;BME280;11985;49.404;7.734;2023-07-28T09:59:42;96797.13;;;17.99;100.00
23616;BME280;11985;49.404;7.734;2023-07-28T10:04:47;96801.13;;;17.91;100.00
23616;BME280;11985;49.404;7.734;2023-07-28T10:09:49;96803.25;;;17.84;100.00
23616;BME280;11985;49.404;7.734;2023-07-28T10:15:00;96815.19;;;17.76;100.00
23616;BME280;11985;49.404;7.734;2023-07-28T10:20:04;96817.00;;;17.71;100.00
23616;BME280;11985;49.404;7.734;2023-07-28T10:25:09;96815.75;;;17.83;100.00
23616;BME280;11985;49.404;7.734;2023-07-28T10:30:13;96815.00;;;18.03;100.00
23616;BME280;11985;49.404;7.734;2023-07-28T10:35:23;96821.16;;;18.24;100.00
23616;BME280;11985;49.404;7.734;2023-07-28T10:40:29;96824.91;;;18.33;100.00
23616;BME280;11985;49.404;7.734;2023-07-28T10:45:32;96836.09;;;18.40;100.00
23616;BME280;11985;49.404;7.734;2023-07-28T10:50:35;96830.19;;;18.03;100.00
23616;BME280;11985;49.404;7.734;2023-07-28T10:55:37;96836.00;;;17.79;100.00
23616;BME280;11985;49.404;7.734;2023-07-28T11:00:38;96840.22;;;17.75;100.00
23616;BME280;11985;49.404;7.734;2023-07-28T11:05:43;96834.09;;;17.75;100.00
23616;BME280;11985;49.404;7.734;2023-07-28T11:10:44;96833.88;;;17.91;100.00
23616;BME280;11985;49.404;7.734;2023-07-28T11:15:46;96831.22;;;17.97;100.00
23616;BME280;11985;49.404;7.734;2023-07-28T11:20:50;96828.03;;;17.94;100.00
23616;BME280;11985;49.404;7.734;2023-07-28T11:25:51;96837.56;;;17.75;100.00
23616;BME280;11985;49.404;7.734;2023-07-28T11:30:53;96842.84;;;17.70;100.00
23616;BME280;11985;49.404;7.734;2023-07-28T11:35:56;96844.44;;;17.71;100.00
23616;BME280;11985;49.404;7.734;2023-07-28T11:40:58;96840.69;;;17.62;100.00
23616;BME280;11985;49.404;7.734;2023-07-28T11:45:59;96834.91;;;17.75;100.00
23616;BME280;11985;49.404;7.734;2023-07-28T11:51:03;96832.28;;;17.85;100.00
23616;BME280;11985;49.404;7.734;2023-07-28T11:56:04;96830.72;;;18.00;100.00
23616;BME280;11985;49.404;7.734;2023-07-28T12:01:08;96832.34;;;18.16;100.00
23616;BME280;11985;49.404;7.734;2023-07-28T12:06:11;96836.63;;;18.37;100.00
23616;BME280;11985;49.404;7.734;2023-07-28T12:11:14;96836.09;;;18.51;100.00
23616;BME280;11985;49.404;7.734;2023-07-28T12:21:38;96838.75;;;18.25;100.00
23616;BME280;11985;49.404;7.734;2023-07-28T12:26:39;96839.53;;;18.10;100.00
23616;BME280;11985;49.404;7.734;2023-07-28T12:31:41;96836.59;;;18.07;100.00
23616;BME280;11985;49.404;7.734;2023-07-28T12:36:44;96836.06;;;18.00;100.00
23616;BME280;11985;49.404;7.734;2023-07-28T12:41:46;96844.81;;;17.90;100.00
23616;BME280;11985;49.404;7.734;2023-07-28T12:46:47;96839.50;;;17.95;100.00
23616;BME280;11985;49.404;7.734;2023-07-28T12:51:50;96834.44;;;17.88;100.00
23616;BME280;11985;49.404;7.734;2023-07-28T12:56:53;96843.47;;;17.87;100.00
23616;BME280;11985;49.404;7.734;2023-07-28T13:01:55;96847.19;;;17.86;100.00
23616;BME280;11985;49.404;7.734;2023-07-28T13:06:58;96849.59;;;17.93;100.00
23616;BME280;11985;49.404;7.734;2023-07-28T13:12:00;96844.50;;;17.76;100.00
23616;BME280;11985;49.404;7.734;2023-07-28T13:17:01;96851.09;;;17.68;100.00
23616;BME280;11985;49.404;7.734;2023-07-28T13:22:05;96856.69;;;17.62;100.00
23616;BME280;11985;49.404;7.734;2023-07-28T13:27:07;96845.41;;;17.45;100.00
23616;BME280;11985;49.404;7.734;2023-07-28T13:32:16;96839.28;;;17.39;100.00
23616;BME280;11985;49.404;7.734;2023-07-28T13:37:19;96841.88;;;17.29;100.00
23616;BME280;11985;49.404;7.734;2023-07-28T13:42:21;96839.97;;;17.19;100.00
23616;BME280;11985;49.404;7.734;2023-07-28T13:47:22;96837.81;;;17.21;100.00
23616;BME280;11985;49.404;7.734;2023-07-28T13:52:25;96840.50;;;17.21;100.00
23616;BME280;11985;49.404;7.734;2023-07-28T13:57:27;96838.34;;;17.18;100.00
23616;BME280;11985;49.404;7.734;2023-07-28T14:02:29;96839.94;;;17.14;100.00
23616;BME280;11985;49.404;7.734;2023-07-28T14:07:32;96842.06;;;17.12;100.00
23616;BME280;11985;49.404;7.734;2023-07-28T14:12:34;96847.88;;;17.09;100.00
23616;BME280;11985;49.404;7.734;2023-07-28T14:17:35;96847.59;;;17.05;100.00
23616;BME280;11985;49.404;7.734;2023-07-28T14:22:38;96855.03;;;17.03;100.00
23616;BME280;11985;49.404;7.734;2023-07-28T14:27:40;96855.91;;;17.14;100.00
23616;BME280;11985;49.404;7.734;2023-07-28T14:32:42;96856.97;;;17.13;100.00
23616;BME280;11985;49.404;7.734;2023-07-28T14:37:44;96856.91;;;17.08;100.00
23616;BME280;11985;49.404;7.734;2023-07-28T14:42:46;96854.75;;;17.00;100.00
23616;BME280;11985;49.404;7.734;2023-07-28T14:47:48;96852.81;;;16.90;100.00
23616;BME280;11985;49.404;7.734;2023-07-28T14:52:51;96846.13;;;16.87;100.00
23616;BME280;11985;49.404;7.734;2023-07-28T14:57:52;96852.03;;;16.89;100.00
23616;BME280;11985;49.404;7.734;2023-07-28T15:02:54;96848.31;;;16.91;100.00
23616;BME280;11985;49.404;7.734;2023-07-28T15:07:57;96852.06;;;16.95;100.00
23616;BME280;11985;49.404;7.734;2023-07-28T15:13:00;96852.63;;;17.02;100.00
23616;BME280;11985;49.404;7.734;2023-07-28T15:18:02;96848.91;;;17.03;100.00
23616;BME280;11985;49.404;7.734;2023-07-28T15:23:05;96848.19;;;17.12;100.00
23616;BME280;11985;49.404;7.734;2023-07-28T15:28:06;96844.75;;;17.17;100.00
23616;BME280;11985;49.404;7.734;2023-07-28T15:33:08;96845.53;;;17.18;100.00
23616;BME280;11985;49.404;7.734;2023-07-28T15:38:11;96844.50;;;17.24;100.00
23616;BME280;11985;49.404;7.734;2023-07-28T15:43:13;96844.31;;;17.35;100.00
23616;BME280;11985;49.404;7.734;2023-07-28T15:48:14;96852.31;;;17.40;100.00
23616;BME280;11985;49.404;7.734;2023-07-28T15:53:17;96852.34;;;17.46;100.00
23616;BME280;11985;49.404;7.734;2023-07-28T15:58:19;96848.09;;;17.50;100.00
23616;BME280;11985;49.404;7.734;2023-07-28T16:03:20;96858.25;;;17.58;100.00
23616;BME280;11985;49.404;7.734;2023-07-28T16:08:23;96851.09;;;17.68;100.00
23616;BME280;11985;49.404;7.734;2023-07-28T16:13:25;96857.81;;;17.76;100.00
23616;BME280;11985;49.404;7.734;2023-07-28T16:18:27;96865.31;;;17.84;100.00
23616;BME280;11985;49.404;7.734;2023-07-28T16:23:30;96863.72;;;17.83;100.00
23616;BME280;11985;49.404;7.734;2023-07-28T16:28:31;96860.50;;;17.86;100.00
23616;BME280;11985;49.404;7.734;2023-07-28T16:33:33;96853.59;;;17.85;100.00
23616;BME280;11985;49.404;7.734;2023-07-28T16:38:37;96848.25;;;17.85;100.00
23616;BME280;11985;49.404;7.734;2023-07-28T16:43:39;96848.78;;;17.87;100.00
23616;BME280;11985;49.404;7.734;2023-07-28T16:48:40;96845.03;;;17.78;100.00
23616;BME280;11985;49.404;7.734;2023-07-28T16:53:43;96843.47;;;17.82;100.00
23616;BME280;11985;49.404;7.734;2023-07-28T16:58:45;96853.31;;;17.92;100.00
23616;BME280;11985;49.404;7.734;2023-07-28T17:03:47;96847.22;;;17.97;100.00
23616;BME280;11985;49.404;7.734;2023-07-28T17:08:50;96852.56;;;17.97;100.00
23616;BME280;11985;49.404;7.734;2023-07-28T17:13:51;96854.69;;;17.94;100.00
23616;BME280;11985;49.404;7.734;2023-07-28T17:18:53;96858.41;;;17.93;100.00
23616;BME280;11985;49.404;7.734;2023-07-28T17:23:56;96859.50;;;18.03;100.00
23616;BME280;11985;49.404;7.734;2023-07-28T17:28:57;96856.84;;;18.13;100.00
23616;BME280;11985;49.404;7.734;2023-07-28T17:33:59;96862.75;;;18.30;100.00
23616;BME280;11985;49.404;7.734;2023-07-28T17:39:02;96862.47;;;18.37;100.00
23616;BME280;11985;49.404;7.734;2023-07-28T17:44:04;96865.97;;;18.32;100.00
23616;BME280;11985;49.404;7.734;2023-07-28T17:49:05;96858.97;;;18.21;100.00
23616;BME280;11985;49.404;7.734;2023-07-28T17:54:09;96860.03;;;18.10;100.00
23616;BME280;11985;49.404;7.734;2023-07-28T17:59:11;96853.09;;;18.04;100.00
23616;BME280;11985;49.404;7.734;2023-07-28T18:04:12;96855.75;;;17.99;100.00
23616;BME280;11985;49.404;7.734;2023-07-28T18:09:16;96849.91;;;18.07;100.00
23616;BME280;11985;49.404;7.734;2023-07-28T18:14:17;96849.94;;;18.12;100.00
23616;BME280;11985;49.404;7.734;2023-07-28T18:19:19;96868.31;;;18.13;100.00
23616;BME280;11985;49.404;7.734;2023-07-28T18:24:22;96852.56;;;18.07;100.00
23616;BME280;11985;49.404;7.734;2023-07-28T18:29:24;96849.91;;;18.02;100.00
23616;BME280;11985;49.404;7.734;2023-07-28T18:34:26;96856.00;;;17.97;100.00
23616;BME280;11985;49.404;7.734;2023-07-28T18:39:29;96856.78;;;17.82;100.00
23616;BME280;11985;49.404;7.734;2023-07-28T18:44:32;96872.75;;;17.77;100.00
23616;BME280;11985;49.404;7.734;2023-07-28T18:49:33;96874.81;;;17.70;100.00
23616;BME280;11985;49.404;7.734;2023-07-28T18:54:36;96880.13;;;17.70;100.00
23616;BME280;11985;49.404;7.734;2023-07-28T18:59:38;96872.91;;;17.65;100.00
23616;BME280;11985;49.404;7.734;2023-07-28T19:04:40;96869.44;;;17.60;100.00
23616;BME280;11985;49.404;7.734;2023-07-28T19:09:43;96867.78;;;17.49;100.00
23616;BME280;11985;49.404;7.734;2023-07-28T19:14:45;96873.09;;;17.44;100.00
23616;BME280;11985;49.404;7.734;2023-07-28T19:19:46;96878.91;;;17.35;100.00
23616;BME280;11985;49.404;7.734;2023-07-28T19:24:49;96890.09;;;17.32;100.00
23616;BME280;11985;49.404;7.734;2023-07-28T19:29:51;96885.50;;;17.23;100.00
23616;BME280;11985;49.404;7.734;2023-07-28T19:34:53;96884.91;;;17.15;100.00
23616;BME280;11985;49.404;7.734;2023-07-28T19:39:56;96889.47;;;17.20;100.00
23616;BME280;11985;49.404;7.734;2023-07-28T19:44:58;96887.38;;;17.27;100.00
23616;BME280;11985;49.404;7.734;2023-07-28T19:50:00;96889.81;;;17.34;100.00
23616;BME280;11985;49.404;7.734;2023-07-28T19:55:03;96889.03;;;17.33;100.00
23616;BME280;11985;49.404;7.734;2023-07-28T20:00:06;96887.88;;;17.24;100.00
23616;BME280;11985;49.404;7.734;2023-07-28T20:05:09;96893.16;;;17.14;100.00
23616;BME280;11985;49.404;7.734;2023-07-28T20:10:12;96889.38;;;17.05;100.00
23616;BME280;11985;49.404;7.734;2023-07-28T20:15:14;96904.25;;;17.01;100.00
23616;BME280;11985;49.404;7.734;2023-07-28T20:20:16;96898.84;;;16.91;100.00
23616;BME280;11985;49.404;7.734;2023-07-28T20:25:19;96892.41;;;16.86;100.00
23616;BME280;11985;49.404;7.734;2023-07-28T20:30:20;96888.13;;;16.80;100.00
23616;BME280;11985;49.404;7.734;2023-07-28T20:35:22;96880.09;;;16.75;100.00
23616;BME280;11985;49.404;7.734;2023-07-28T20:40:26;96887.19;;;16.70;100.00
23616;BME280;11985;49.404;7.734;2023-07-28T20:45:28;96887.16;;;16.64;100.00
23616;BME280;11985;49.404;7.734;2023-07-28T20:50:29;96878.88;;;16.56;100.00
23616;BME280;11985;49.404;7.734;2023-07-28T20:55:33;96889.44;;;16.51;100.00
23616;BME280;11985;49.404;7.734;2023-07-28T21:00:35;96891.06;;;16.52;100.00
23616;BME280;11985;49.404;7.734;2023-07-28T21:05:36;96883.59;;;16.54;100.00
23616;BME280;11985;49.404;7.734;2023-07-28T21:10:40;96887.06;;;16.49;100.00
23616;BME280;11985;49.404;7.734;2023-07-28T21:15:41;96882.22;;;16.46;100.00
23616;BME280;11985;49.404;7.734;2023-07-28T21:20:43;96878.00;;;16.50;100.00
23616;BME280;11985;49.404;7.734;2023-07-28T21:25:46;96886.03;;;16.55;100.00
23616;BME280;11985;49.404;7.734;2023-07-28T21:30:48;96877.81;;;16.57;100.00
23616;BME280;11985;49.404;7.734;2023-07-28T21:35:49;96882.59;;;16.60;100.00
23616;BME280;11985;49.404;7.734;2023-07-28T21:40:53;96875.47;;;16.66;100.00
23616;BME280;11985;49.404;7.734;2023-07-28T21:45:54;96862.72;;;16.68;100.00
23616;BME280;11985;49.404;7.734;2023-07-28T21:50:56;96859.50;;;16.66;100.00
23616;BME280;11985;49.404;7.734;2023-07-28T21:55:59;96860.78;;;16.58;100.00
23616;BME280;11985;49.404;7.734;2023-07-28T22:01:00;96862.88;;;16.51;100.00
23616;BME280;11985;49.404;7.734;2023-07-28T22:06:03;96868.97;;;16.51;100.00
23616;BME280;11985;49.404;7.734;2023-07-28T22:11:06;96868.66;;;16.48;100.00
23616;BME280;11985;49.404;7.734;2023-07-28T22:16:07;96872.38;;;16.47;100.00
23616;BME280;11985;49.404;7.734;2023-07-28T22:21:09;96861.25;;;16.50;100.00
23616;BME280;11985;49.404;7.734;2023-07-28T22:26:12;96866.38;;;16.56;100.00
23616;BME280;11985;49.404;7.734;2023-07-28T22:31:14;96854.13;;;16.55;100.00
23616;BME280;11985;49.404;7.734;2023-07-28T22:36:16;96847.19;;;16.54;100.00
23616;BME280;11985;49.404;7.734;2023-07-28T22:41:18;96859.94;;;16.52;100.00
23616;BME280;11985;49.404;7.734;2023-07-28T22:46:20;96852.78;;;16.53;100.00
23616;BME280;11985;49.404;7.734;2023-07-28T22:51:22;96843.25;;;16.57;100.00
23616;BME280;11985;49.404;7.734;2023-07-28T22:56:25;96838.69;;;16.52;100.00
23616;BME280;11985;49.404;7.734;2023-07-28T23:01:26;96826.38;;;16.41;100.00
23616;BME280;11985;49.404;7.734;2023-07-28T23:06:28;96822.38;;;16.39;100.00
23616;BME280;11985;49.404;7.734;2023-07-28T23:11:31;96839.81;;;16.29;100.00
23616;BME280;11985;49.404;7.734;2023-07-28T23:16:33;96826.00;;;16.27;100.00
23616;BME280;11985;49.404;7.734;2023-07-28T23:21:35;96826.75;;;16.23;100.00
23616;BME280;11985;49.404;7.734;2023-07-28T23:26:38;96817.72;;;16.24;100.00
23616;BME280;11985;49.404;7.734;2023-07-28T23:31:39;96825.91;;;16.17;100.00
23616;BME280;11985;49.404;7.734;2023-07-28T23:36:41;96811.81;;;16.17;100.00
23616;BME280;11985;49.404;7.734;2023-07-28T23:41:45;96816.81;;;16.13;100.00
23616;BME280;11985;49.404;7.734;2023-07-28T23:46:46;96805.66;;;16.11;100.00
23616;BME280;11985;49.404;7.734;2023-07-28T23:51:48;96799.78;;;16.09;100.00
23616;BME280;11985;49.404;7.734;2023-07-28T23:56:51;96802.16;;;16.05;100.00
